Station Historical Data
Daily Summary for September 7, 2017 Units:  English    Metric   Both
Next Day »
Daily Weekly Monthly Yearly Custom
  High: Low: Average:
Temperature: 75.7 °F 58.9 °F 66 °F
Dew Point: 59.9 °F 52.6 °F 56.3 °F
Humidity: 85% 57% 72%
Wind Speed: 10.0mph 0.0mph 1.1mph
Wind Gust: 13.0mph - -
Wind- - SSW
Pressure: 29.96 in 29.88 in -
Precipitation: 0.00 in    
Historical Graphs
 
 
Tabular Data for September 7, 2017
Time Temperature Dew Point Pressure Wind Wind Speed Wind Gust Humidity Rainfall Rate (Hourly) solar Conditions
00:01 68.4 °F 54.4 °F 29.90 in Calm     61% 0.00 in 0.00 W/m2
00:06 68.2 °F 54.7 °F 29.90 in Calm     62% 0.00 in 0.00 W/m2
00:11 68.1 °F 54.6 °F 29.90 in Calm     62% 0.00 in 0.00 W/m2
00:16 67.9 °F 54.4 °F 29.90 in Calm     62% 0.00 in 0.00 W/m2
00:21 67.8 °F 54.8 °F 29.90 in Calm     63% 0.00 in 0.00 W/m2
00:26 67.7 °F 54.7 °F 29.90 in Calm     63% 0.00 in 0.00 W/m2
00:33 67.6 °F 54.6 °F 29.89 in Calm     63% 0.00 in 0.00 W/m2
00:38 67.6 °F 54.6 °F 29.90 in Calm     63% 0.00 in 0.00 W/m2
00:43 67.6 °F 55.0 °F 29.90 in Calm     64% 0.00 in 0.00 W/m2
00:48 67.6 °F 54.6 °F 29.90 in Calm     63% 0.00 in 0.00 W/m2
00:53 67.6 °F 54.6 °F 29.90 in Calm     63% 0.00 in 0.00 W/m2
00:58 67.6 °F 54.6 °F 29.90 in Calm     63% 0.00 in 0.00 W/m2
01:03 67.7 °F 54.7 °F 29.90 in Calm     63% 0.00 in 0.00 W/m2
01:08 67.6 °F 55.0 °F 29.90 in Calm     64% 0.00 in 0.00 W/m2
01:13 67.4 °F 54.8 °F 29.89 in Calm     64% 0.00 in 0.00 W/m2
01:18 67.4 °F 54.8 °F 29.89 in Calm   1.0 mph 64% 0.00 in 0.00 W/m2
01:23 67.4 °F 54.8 °F 29.89 in Calm     64% 0.00 in 0.00 W/m2
01:28 67.3 °F 55.2 °F 29.89 in Calm     65% 0.00 in 0.00 W/m2
01:33 67.2 °F 55.0 °F 29.89 in Calm     65% 0.00 in 0.00 W/m2
01:38 67.2 °F 55.0 °F 29.89 in Calm     65% 0.00 in 0.00 W/m2
01:43 67.1 °F 55.0 °F 29.89 in Calm     65% 0.00 in 0.00 W/m2
01:48 67.0 °F 55.3 °F 29.89 in Calm   3.0 mph 66% 0.00 in 0.00 W/m2
01:53 67.0 °F 55.3 °F 29.90 in WSW 5.0 mph 7.0 mph 66% 0.00 in 0.00 W/m2
01:58 66.8 °F 55.1 °F 29.90 in Calm   7.0 mph 66% 0.00 in 0.00 W/m2
02:03 66.7 °F 55.4 °F 29.90 in Calm   5.0 mph 67% 0.00 in 0.00 W/m2
02:08 66.5 °F 55.2 °F 29.90 in Calm   5.0 mph 67% 0.00 in 0.00 W/m2
02:13 66.3 °F 55.4 °F 29.89 in Calm   6.0 mph 68% 0.00 in 0.00 W/m2
02:18 66.2 °F 55.3 °F 29.90 in Calm   4.0 mph 68% 0.00 in 0.00 W/m2
02:23 65.9 °F 55.0 °F 29.90 in Calm   5.0 mph 68% 0.00 in 0.00 W/m2
02:28 65.8 °F 55.0 °F 29.89 in Calm     68% 0.00 in 0.00 W/m2
02:33 65.6 °F 54.8 °F 29.89 in Calm   3.0 mph 68% 0.00 in 0.00 W/m2
02:38 65.4 °F 55.0 °F 29.89 in Calm     69% 0.00 in 0.00 W/m2
02:43 65.3 °F 54.9 °F 29.89 in Calm   5.0 mph 69% 0.00 in 0.00 W/m2
02:48 65.1 °F 54.7 °F 29.89 in Calm   4.0 mph 69% 0.00 in 0.00 W/m2
02:53 65.0 °F 54.6 °F 29.89 in Calm   4.0 mph 69% 0.00 in 0.00 W/m2
02:58 64.8 °F 54.4 °F 29.89 in Calm   1.0 mph 69% 0.00 in 0.00 W/m2
03:03 64.3 °F 54.3 °F 29.89 in Calm   5.0 mph 70% 0.00 in 0.00 W/m2
03:08 63.9 °F 54.3 °F 29.89 in South 7.0 mph 9.0 mph 71% 0.00 in 0.00 W/m2
03:13 63.7 °F 54.1 °F 29.89 in Calm   7.0 mph 71% 0.00 in 0.00 W/m2
03:18 63.6 °F 54.0 °F 29.89 in Calm   7.0 mph 71% 0.00 in 0.00 W/m2
03:23 63.4 °F 53.8 °F 29.89 in Calm     71% 0.00 in 0.00 W/m2
03:28 63.3 °F 53.8 °F 29.89 in Calm     71% 0.00 in 0.00 W/m2
03:33 63.1 °F 53.9 °F 29.89 in Calm     72% 0.00 in 0.00 W/m2
03:38 63.0 °F 53.8 °F 29.89 in Calm     72% 0.00 in 0.00 W/m2
03:43 62.9 °F 53.8 °F 29.89 in Calm     72% 0.00 in 0.00 W/m2
03:44 62.8 °F 53.7 °F 29.89 in Calm     72% 0.00 in 0.00 W/m2
03:49 62.5 °F 53.4 °F 29.89 in Calm     72% 0.00 in 0.00 W/m2
03:54 62.1 °F 53.3 °F 29.89 in Calm     73% 0.00 in 0.00 W/m2
03:59 61.9 °F 53.2 °F 29.89 in Calm     73% 0.00 in 0.00 W/m2
04:04 61.7 °F 53.3 °F 29.89 in Calm     74% 0.00 in 0.00 W/m2
04:09 61.6 °F 53.2 °F 29.89 in Calm     74% 0.00 in 0.00 W/m2
04:14 61.6 °F 53.2 °F 29.89 in Calm     74% 0.00 in 0.00 W/m2
04:19 61.5 °F 53.2 °F 29.89 in Calm     74% 0.00 in 0.00 W/m2
04:24 61.2 °F 52.9 °F 29.89 in Calm     74% 0.00 in 0.00 W/m2
04:29 60.9 °F 52.9 °F 29.89 in Calm     75% 0.00 in 0.00 W/m2
04:34 60.8 °F 52.8 °F 29.89 in Calm     75% 0.00 in 0.00 W/m2
04:39 60.7 °F 53.1 °F 29.89 in Calm     76% 0.00 in 0.00 W/m2
04:45 60.5 °F 52.9 °F 29.89 in Calm     76% 0.00 in 0.00 W/m2
04:50 60.2 °F 52.6 °F 29.89 in Calm     76% 0.00 in 0.00 W/m2
04:55 60.2 °F 53.0 °F 29.89 in Calm     77% 0.00 in 0.00 W/m2
05:00 60.2 °F 53.0 °F 29.89 in Calm     77% 0.00 in 0.00 W/m2
05:05 60.1 °F 52.9 °F 29.89 in Calm     77% 0.00 in 0.00 W/m2
05:10 60.0 °F 53.1 °F 29.89 in Calm     78% 0.00 in 0.00 W/m2
05:15 60.0 °F 53.1 °F 29.89 in Calm     78% 0.00 in 0.00 W/m2
05:20 59.9 °F 53.0 °F 29.89 in Calm     78% 0.00 in 0.00 W/m2
05:25 59.9 °F 53.0 °F 29.89 in Calm     78% 0.00 in 0.00 W/m2
05:30 59.8 °F 52.9 °F 29.89 in Calm     78% 0.00 in 0.00 W/m2
05:35 59.6 °F 52.7 °F 29.89 in Calm     78% 0.00 in 0.00 W/m2
05:40 59.5 °F 53.0 °F 29.89 in Calm   1.0 mph 79% 0.00 in 0.00 W/m2
05:45 59.4 °F 52.9 °F 29.89 in Calm     79% 0.00 in 0.00 W/m2
05:50 59.5 °F 53.0 °F 29.89 in Calm     79% 0.00 in 0.00 W/m2
05:55 59.4 °F 52.9 °F 29.89 in Calm     79% 0.00 in 0.00 W/m2
06:00 59.5 °F 53.0 °F 29.89 in Calm   2.0 mph 79% 0.00 in 0.00 W/m2
06:05 59.5 °F 53.0 °F 29.89 in Calm     79% 0.00 in 0.00 W/m2
06:10 59.6 °F 53.1 °F 29.89 in Calm   5.0 mph 79% 0.00 in 0.00 W/m2
06:15 59.6 °F 53.1 °F 29.89 in Calm   6.0 mph 79% 0.00 in 0.00 W/m2
06:20 59.6 °F 52.7 °F 29.89 in Calm   5.0 mph 78% 0.00 in 0.00 W/m2
06:25 59.7 °F 52.8 °F 29.90 in Calm   1.0 mph 78% 0.00 in 0.00 W/m2
06:30 59.7 °F 52.8 °F 29.90 in South 1.0 mph 4.0 mph 78% 0.00 in 0.00 W/m2
06:35 59.7 °F 52.8 °F 29.90 in South 4.0 mph 6.0 mph 78% 0.00 in 0.00 W/m2
06:40 59.7 °F 52.8 °F 29.90 in Calm   6.0 mph 78% 0.00 in 5.00 W/m2
06:45 59.7 °F 52.8 °F 29.90 in Calm   6.0 mph 78% 0.00 in 9.00 W/m2
06:50 59.7 °F 52.8 °F 29.90 in South 5.0 mph 5.0 mph 78% 0.00 in 12.00 W/m2
06:55 59.6 °F 52.7 °F 29.91 in Calm   5.0 mph 78% 0.00 in 16.00 W/m2
07:00 59.6 °F 53.1 °F 29.91 in South 1.0 mph 5.0 mph 79% 0.00 in 25.00 W/m2
07:05 59.6 °F 53.1 °F 29.91 in Calm     79% 0.00 in 32.00 W/m2
07:10 59.6 °F 53.1 °F 29.90 in Calm     79% 0.00 in 40.00 W/m2
07:15 59.5 °F 53.3 °F 29.91 in Calm   5.0 mph 80% 0.00 in 47.00 W/m2
07:20 59.5 °F 53.3 °F 29.91 in Calm   4.0 mph 80% 0.00 in 58.00 W/m2
07:25 59.5 °F 53.3 °F 29.91 in South 1.0 mph 4.0 mph 80% 0.00 in 67.00 W/m2
07:30 59.4 °F 53.2 °F 29.91 in South 2.0 mph 6.0 mph 80% 0.00 in 79.00 W/m2
07:36 59.4 °F 53.6 °F 29.91 in South 2.0 mph 6.0 mph 81% 0.00 in 93.00 W/m2
07:41 59.4 °F 53.6 °F 29.92 in South 5.0 mph 7.0 mph 81% 0.00 in 111.00 W/m2
07:46 59.4 °F 53.6 °F 29.92 in Calm   6.0 mph 81% 0.00 in 128.00 W/m2
07:48 59.4 °F 53.6 °F 29.92 in Calm     81% 0.00 in 132.00 W/m2
07:53 59.3 °F 53.8 °F 29.92 in Calm     82% 0.00 in 151.00 W/m2
07:58 59.3 °F 53.8 °F 29.92 in Calm   6.0 mph 82% 0.00 in 169.00 W/m2
08:03 59.3 °F 53.8 °F 29.92 in Calm   5.0 mph 82% 0.00 in 190.00 W/m2
08:08 59.4 °F 53.9 °F 29.92 in South 4.0 mph 6.0 mph 82% 0.00 in 151.00 W/m2
08:13 59.4 °F 53.9 °F 29.93 in South 5.0 mph 10.0 mph 82% 0.00 in 111.00 W/m2
08:18 59.4 °F 54.2 °F 29.93 in South 2.0 mph 7.0 mph 83% 0.00 in 125.00 W/m2
08:23 59.5 °F 54.3 °F 29.93 in SSW 5.0 mph 9.0 mph 83% 0.00 in 76.00 W/m2
08:28 59.4 °F 54.2 °F 29.94 in SSW 8.0 mph 8.0 mph 83% 0.00 in 74.00 W/m2
08:33 59.4 °F 54.2 °F 29.94 in South 1.0 mph 8.0 mph 83% 0.00 in 83.00 W/m2
08:38 59.3 °F 54.2 °F 29.94 in South 1.0 mph 5.0 mph 83% 0.00 in 83.00 W/m2
08:43 59.2 °F 54.4 °F 29.94 in Calm   5.0 mph 84% 0.00 in 93.00 W/m2
08:48 59.1 °F 54.3 °F 29.94 in South 6.0 mph 9.0 mph 84% 0.00 in 81.00 W/m2
08:53 59.1 °F 54.3 °F 29.94 in South 3.0 mph 7.0 mph 84% 0.00 in 83.00 W/m2
08:58 59.0 °F 54.2 °F 29.94 in Calm   2.0 mph 84% 0.00 in 95.00 W/m2
09:03 59.0 °F 54.2 °F 29.94 in South 4.0 mph 6.0 mph 84% 0.00 in 118.00 W/m2
09:08 59.0 °F 54.2 °F 29.95 in Calm     84% 0.00 in 134.00 W/m2
09:13 58.9 °F 54.1 °F 29.95 in South 7.0 mph 8.0 mph 84% 0.00 in 125.00 W/m2
09:18 58.9 °F 54.1 °F 29.95 in South 2.0 mph 7.0 mph 84% 0.00 in 141.00 W/m2
09:23 59.0 °F 54.2 °F 29.95 in South 1.0 mph 5.0 mph 84% 0.00 in 149.00 W/m2
09:28 59.0 °F 54.2 °F 29.95 in Calm   5.0 mph 84% 0.00 in 135.00 W/m2
09:33 59.1 °F 54.3 °F 29.95 in Calm   6.0 mph 84% 0.00 in 142.00 W/m2
09:38 59.1 °F 54.3 °F 29.96 in Calm   4.0 mph 84% 0.00 in 128.00 W/m2
09:43 59.1 °F 54.6 °F 29.96 in SSW 4.0 mph 4.0 mph 85% 0.00 in 135.00 W/m2
09:48 59.2 °F 54.4 °F 29.96 in Calm     84% 0.00 in 165.00 W/m2
09:53 59.2 °F 54.7 °F 29.96 in Calm   3.0 mph 85% 0.00 in 172.00 W/m2
09:58 59.3 °F 54.5 °F 29.96 in Calm     84% 0.00 in 234.00 W/m2
10:03 59.3 °F 54.5 °F 29.96 in Calm     84% 0.00 in 236.00 W/m2
10:08 59.4 °F 54.6 °F 29.96 in SSW 2.0 mph 4.0 mph 84% 0.00 in 329.00 W/m2
10:13 59.5 °F 54.7 °F 29.96 in Calm     84% 0.00 in 446.00 W/m2
10:18 59.7 °F 54.9 °F 29.96 in SSW 1.0 mph 5.0 mph 84% 0.00 in 341.00 W/m2
10:24 59.8 °F 55.0 °F 29.96 in Calm     84% 0.00 in 531.00 W/m2
10:29 60.0 °F 55.2 °F 29.96 in Calm     84% 0.00 in 657.00 W/m2
10:34 60.3 °F 55.5 °F 29.96 in SSW 4.0 mph 6.0 mph 84% 0.00 in 621.00 W/m2
10:39 60.7 °F 55.8 °F 29.96 in Calm   4.0 mph 84% 0.00 in 626.00 W/m2
10:44 61.0 °F 55.8 °F 29.96 in SSW 2.0 mph 4.0 mph 83% 0.00 in 640.00 W/m2
10:49 61.3 °F 56.1 °F 29.96 in SSW 4.0 mph 7.0 mph 83% 0.00 in 649.00 W/m2
10:52 61.4 °F 55.9 °F 29.96 in Calm   3.0 mph 82% 0.00 in 663.00 W/m2
10:57 61.8 °F 56.2 °F 29.96 in SSW 4.0 mph 4.0 mph 82% 0.00 in 666.00 W/m2
11:02 62.1 °F 56.5 °F 29.96 in Calm   4.0 mph 82% 0.00 in 670.00 W/m2
11:07 62.5 °F 56.6 °F 29.96 in Calm   1.0 mph 81% 0.00 in 684.00 W/m2
11:12 63.0 °F 56.7 °F 29.96 in Calm   7.0 mph 80% 0.00 in 691.00 W/m2
11:17 63.5 °F 56.9 °F 29.96 in Calm   3.0 mph 79% 0.00 in 701.00 W/m2
11:22 64.0 °F 57.0 °F 29.96 in SSW 1.0 mph 1.0 mph 78% 0.00 in 708.00 W/m2
11:27 64.6 °F 57.2 °F 29.96 in Calm   7.0 mph 77% 0.00 in 715.00 W/m2
11:32 65.0 °F 57.6 °F 29.96 in Calm     77% 0.00 in 722.00 W/m2
11:37 65.7 °F 57.6 °F 29.96 in Calm     75% 0.00 in 731.00 W/m2
11:42 66.3 °F 58.2 °F 29.96 in SSE 6.0 mph 7.0 mph 75% 0.00 in 735.00 W/m2
11:47 66.8 °F 57.9 °F 29.96 in Calm     73% 0.00 in 740.00 W/m2
11:52 67.0 °F 58.1 °F 29.96 in Calm   5.0 mph 73% 0.00 in 744.00 W/m2
11:57 67.2 °F 58.3 °F 29.95 in SSW 5.0 mph 8.0 mph 73% 0.00 in 751.00 W/m2
12:02 67.7 °F 58.4 °F 29.95 in SW 4.0 mph 8.0 mph 72% 0.00 in 756.00 W/m2
12:03 67.8 °F 58.8 °F 29.95 in Calm   8.0 mph 73% 0.00 in 758.00 W/m2
12:08 68.4 °F 58.6 °F 29.95 in SSW 7.0 mph 8.0 mph 71% 0.00 in 763.00 W/m2
12:13 69.1 °F 58.5 °F 29.95 in SW 5.0 mph 7.0 mph 69% 0.00 in 768.00 W/m2
12:18 69.6 °F 58.6 °F 29.95 in SSW 3.0 mph 7.0 mph 68% 0.00 in 775.00 W/m2
12:23 70.0 °F 58.5 °F 29.95 in SW 8.0 mph 9.0 mph 67% 0.00 in 784.00 W/m2
12:28 70.4 °F 58.5 °F 29.95 in Calm   6.0 mph 66% 0.00 in 784.00 W/m2
12:33 71.1 °F 59.2 °F 29.95 in Calm   4.0 mph 66% 0.00 in 784.00 W/m2
12:38 71.6 °F 59.2 °F 29.95 in SW 10.0 mph 13.0 mph 65% 0.00 in 786.00 W/m2
12:43 72.1 °F 59.3 °F 29.95 in Calm   10.0 mph 64% 0.00 in 784.00 W/m2
12:48 72.4 °F 58.7 °F 29.95 in SW 4.0 mph 7.0 mph 62% 0.00 in 791.00 W/m2
12:53 72.4 °F 58.7 °F 29.94 in Calm   3.0 mph 62% 0.00 in 791.00 W/m2
12:58 72.7 °F 58.9 °F 29.94 in South 2.0 mph 8.0 mph 62% 0.00 in 784.00 W/m2
13:04 73.0 °F 58.8 °F 29.94 in SW 2.0 mph 7.0 mph 61% 0.00 in 788.00 W/m2
13:09 73.1 °F 58.9 °F 29.94 in SW 6.0 mph 10.0 mph 61% 0.00 in 795.00 W/m2
13:14 73.3 °F 59.0 °F 29.94 in SW 1.0 mph 8.0 mph 61% 0.00 in 798.00 W/m2
13:19 73.3 °F 59.0 °F 29.94 in Calm   8.0 mph 61% 0.00 in 798.00 W/m2
13:24 73.4 °F 59.6 °F 29.94 in SSE 4.0 mph 11.0 mph 62% 0.00 in 793.00 W/m2
13:29 73.8 °F 59.1 °F 29.94 in Calm   12.0 mph 60% 0.00 in 791.00 W/m2
13:34 74.2 °F 59.0 °F 29.94 in SW 5.0 mph 11.0 mph 59% 0.00 in 784.00 W/m2
13:39 74.0 °F 58.8 °F 29.94 in SW 1.0 mph 2.0 mph 59% 0.00 in 782.00 W/m2
13:44 73.8 °F 59.1 °F 29.94 in Calm   11.0 mph 60% 0.00 in 780.00 W/m2
13:49 73.9 °F 58.7 °F 29.94 in Calm   9.0 mph 59% 0.00 in 786.00 W/m2
13:54 74.3 °F 59.1 °F 29.94 in SSW 3.0 mph 9.0 mph 59% 0.00 in 786.00 W/m2
13:59 74.7 °F 59.0 °F 29.94 in South 5.0 mph 8.0 mph 58% 0.00 in 793.00 W/m2
14:04 74.9 °F 59.6 °F 29.94 in WSW 6.0 mph 8.0 mph 59% 0.00 in 793.00 W/m2
14:09 75.1 °F 59.3 °F 29.93 in Calm   9.0 mph 58% 0.00 in 775.00 W/m2
14:14 75.5 °F 59.7 °F 29.94 in SW 2.0 mph 13.0 mph 58% 0.00 in 768.00 W/m2
14:19 75.6 °F 59.3 °F 29.93 in WSW 6.0 mph 9.0 mph 57% 0.00 in 610.00 W/m2
14:24 75.7 °F 59.4 °F 29.93 in South 7.0 mph 10.0 mph 57% 0.00 in 710.00 W/m2
14:29 75.7 °F 59.4 °F 29.93 in West 7.0 mph 9.0 mph 57% 0.00 in 564.00 W/m2
14:34 75.2 °F 59.4 °F 29.93 in WSW 6.0 mph 9.0 mph 58% 0.00 in 469.00 W/m2
14:39 74.4 °F 59.2 °F 29.93 in SW 9.0 mph 10.0 mph 59% 0.00 in 462.00 W/m2
14:44 74.1 °F 58.9 °F 29.93 in Calm   7.0 mph 59% 0.00 in 381.00 W/m2
14:49 73.9 °F 59.2 °F 29.93 in WSW 3.0 mph 8.0 mph 60% 0.00 in 524.00 W/m2
14:54 73.6 °F 59.3 °F 29.93 in WSW 5.0 mph 11.0 mph 61% 0.00 in 585.00 W/m2
14:59 73.1 °F 59.3 °F 29.93 in Calm   9.0 mph 62% 0.00 in 543.00 W/m2
15:04 73.2 °F 59.0 °F 29.93 in Calm   7.0 mph 61% 0.00 in 842.00 W/m2
15:09 73.4 °F 58.7 °F 29.93 in Calm   9.0 mph 60% 0.00 in 793.00 W/m2
15:14 73.7 °F 59.0 °F 29.93 in South 8.0 mph 10.0 mph 60% 0.00 in 418.00 W/m2
15:19 73.9 °F 58.7 °F 29.93 in Calm   10.0 mph 59% 0.00 in 248.00 W/m2
15:24 73.9 °F 58.7 °F 29.92 in Calm   8.0 mph 59% 0.00 in 246.00 W/m2
15:29 73.7 °F 59.4 °F 29.93 in Calm     61% 0.00 in 309.00 W/m2
15:34 73.5 °F 59.2 °F 29.92 in SW 7.0 mph 10.0 mph 61% 0.00 in 411.00 W/m2
15:39 73.3 °F 59.0 °F 29.92 in SW 7.0 mph 7.0 mph 61% 0.00 in 278.00 W/m2
15:44 73.1 °F 58.9 °F 29.92 in SW 6.0 mph 8.0 mph 61% 0.00 in 325.00 W/m2
15:49 72.9 °F 58.7 °F 29.92 in SW 3.0 mph 7.0 mph 61% 0.00 in 626.00 W/m2
15:59 72.9 °F 59.1 °F 29.92 in SW 3.0 mph 10.0 mph 62% 0.00 in 577.00 W/m2
16:04 73.0 °F 59.2 °F 29.92 in Calm   1.0 mph 62% 0.00 in 577.00 W/m2
16:09 73.1 °F 58.9 °F 29.92 in Calm   8.0 mph 61% 0.00 in 568.00 W/m2
16:14 73.3 °F 58.6 °F 29.92 in SW 1.0 mph 6.0 mph 60% 0.00 in 536.00 W/m2
16:19 73.3 °F 58.6 °F 29.92 in Calm   7.0 mph 60% 0.00 in 522.00 W/m2
16:24 73.4 °F 58.7 °F 29.92 in SW 7.0 mph 8.0 mph 60% 0.00 in 496.00 W/m2
16:30 73.5 °F 58.8 °F 29.91 in SW 6.0 mph 6.0 mph 60% 0.00 in 411.00 W/m2
16:35 73.5 °F 58.8 °F 29.91 in Calm   3.0 mph 60% 0.00 in 457.00 W/m2
16:40 73.5 °F 58.8 °F 29.91 in Calm   7.0 mph 60% 0.00 in 422.00 W/m2
16:45 73.4 °F 59.2 °F 29.91 in Calm   7.0 mph 61% 0.00 in 392.00 W/m2
16:50 73.3 °F 59.0 °F 29.91 in SW 4.0 mph 7.0 mph 61% 0.00 in 417.00 W/m2
16:55 73.3 °F 58.6 °F 29.91 in Calm   6.0 mph 60% 0.00 in 417.00 W/m2
17:00 73.3 °F 59.0 °F 29.91 in Calm   1.0 mph 61% 0.00 in 394.00 W/m2
17:05 73.3 °F 58.6 °F 29.91 in Calm   7.0 mph 60% 0.00 in 371.00 W/m2
17:10 73.4 °F 59.2 °F 29.91 in SSW 4.0 mph 7.0 mph 61% 0.00 in 359.00 W/m2
17:15 73.4 °F 59.2 °F 29.91 in SSW 4.0 mph 5.0 mph 61% 0.00 in 352.00 W/m2
17:20 73.5 °F 58.8 °F 29.91 in SW 4.0 mph 5.0 mph 60% 0.00 in 329.00 W/m2
17:25 73.5 °F 59.2 °F 29.91 in Calm   6.0 mph 61% 0.00 in 265.00 W/m2
17:30 73.5 °F 58.8 °F 29.91 in Calm   5.0 mph 60% 0.00 in 236.00 W/m2
17:35 73.4 °F 59.2 °F 29.91 in WSW 4.0 mph 6.0 mph 61% 0.00 in 279.00 W/m2
17:40 73.1 °F 58.9 °F 29.91 in WSW 2.0 mph 5.0 mph 61% 0.00 in 264.00 W/m2
17:45 72.9 °F 58.7 °F 29.91 in Calm   3.0 mph 61% 0.00 in 248.00 W/m2
17:50 72.8 °F 59.0 °F 29.90 in Calm     62% 0.00 in 230.00 W/m2
17:55 72.7 °F 58.9 °F 29.90 in Calm   1.0 mph 62% 0.00 in 213.00 W/m2
18:00 72.7 °F 58.9 °F 29.90 in Calm   1.0 mph 62% 0.00 in 195.00 W/m2
18:05 72.7 °F 59.4 °F 29.90 in Calm   1.0 mph 63% 0.00 in 181.00 W/m2
18:15 72.4 °F 59.1 °F 29.89 in Calm     63% 0.00 in 79.00 W/m2
18:20 72.3 °F 59.5 °F 29.89 in Calm     64% 0.00 in 98.00 W/m2
18:26 72.2 °F 59.4 °F 29.89 in Calm   1.0 mph 64% 0.00 in 35.00 W/m2
18:31 72.1 °F 59.3 °F 29.89 in Calm     64% 0.00 in 76.00 W/m2
18:36 71.8 °F 59.4 °F 29.89 in Calm     65% 0.00 in 70.00 W/m2
18:41 71.7 °F 59.3 °F 29.89 in Calm     65% 0.00 in 56.00 W/m2
18:46 71.4 °F 59.5 °F 29.89 in Calm     66% 0.00 in 44.00 W/m2
18:51 71.2 °F 59.7 °F 29.89 in Calm     67% 0.00 in 37.00 W/m2
18:56 71.0 °F 59.9 °F 29.89 in Calm     68% 0.00 in 32.00 W/m2
19:01 70.8 °F 59.7 °F 29.89 in Calm     68% 0.00 in 26.00 W/m2
19:06 70.3 °F 59.7 °F 29.89 in Calm     69% 0.00 in 25.00 W/m2
19:11 69.8 °F 59.2 °F 29.89 in Calm   1.0 mph 69% 0.00 in 23.00 W/m2
19:16 69.4 °F 59.2 °F 29.89 in Calm     70% 0.00 in 16.00 W/m2
19:21 69.2 °F 59.0 °F 29.89 in Calm     70% 0.00 in 11.00 W/m2
19:26 68.8 °F 58.6 °F 29.89 in Calm     70% 0.00 in 5.00 W/m2
19:31 68.3 °F 58.5 °F 29.89 in Calm     71% 0.00 in 0.00 W/m2
19:36 67.9 °F 58.5 °F 29.89 in Calm     72% 0.00 in 0.00 W/m2
19:41 67.6 °F 58.3 °F 29.88 in WSW 3.0 mph 3.0 mph 72% 0.00 in 0.00 W/m2
19:46 67.3 °F 58.0 °F 29.88 in WSW 2.0 mph 4.0 mph 72% 0.00 in 0.00 W/m2
19:51 67.1 °F 58.2 °F 29.88 in Calm   4.0 mph 73% 0.00 in 0.00 W/m2
19:56 67.0 °F 58.1 °F 29.88 in Calm     73% 0.00 in 0.00 W/m2
20:01 66.8 °F 57.9 °F 29.88 in Calm     73% 0.00 in 0.00 W/m2
20:06 66.7 °F 57.8 °F 29.88 in Calm     73% 0.00 in 0.00 W/m2
20:18 66.2 °F 57.7 °F 29.89 in Calm     74% 0.00 in 0.00 W/m2
20:19 66.1 °F 58.0 °F 29.89 in Calm     75% 0.00 in 0.00 W/m2
20:23 65.9 °F 57.8 °F 29.89 in Calm     75% 0.00 in 0.00 W/m2
20:25 65.8 °F 57.7 °F 29.89 in Calm     75% 0.00 in 0.00 W/m2
20:26 65.7 °F 57.6 °F 29.89 in Calm     75% 0.00 in 0.00 W/m2
20:27 65.6 °F 57.5 °F 29.89 in Calm     75% 0.00 in 0.00 W/m2
20:32 65.5 °F 57.7 °F 29.89 in Calm     76% 0.00 in 0.00 W/m2
20:35 65.5 °F 57.7 °F 29.89 in Calm     76% 0.00 in 0.00 W/m2
20:40 65.4 °F 57.7 °F 29.89 in Calm     76% 0.00 in 0.00 W/m2
20:45 65.4 °F 57.7 °F 29.89 in Calm     76% 0.00 in 0.00 W/m2
20:50 65.3 °F 57.5 °F 29.89 in Calm     76% 0.00 in 0.00 W/m2
20:55 65.3 °F 57.9 °F 29.89 in Calm     77% 0.00 in 0.00 W/m2
21:05 65.3 °F 57.9 °F 29.89 in Calm   1.0 mph 77% 0.00 in 0.00 W/m2
21:10 65.3 °F 57.5 °F 29.89 in Calm     76% 0.00 in 0.00 W/m2
21:15 65.4 °F 57.7 °F 29.89 in Calm     76% 0.00 in 0.00 W/m2
21:20 65.5 °F 57.7 °F 29.89 in Calm     76% 0.00 in 0.00 W/m2
21:25 65.5 °F 57.7 °F 29.89 in Calm     76% 0.00 in 0.00 W/m2
21:30 65.6 °F 57.8 °F 29.89 in Calm   1.0 mph 76% 0.00 in 0.00 W/m2
21:35 65.6 °F 57.8 °F 29.89 in Calm     76% 0.00 in 0.00 W/m2
21:40 65.7 °F 57.6 °F 29.89 in Calm     75% 0.00 in 0.00 W/m2
21:45 65.7 °F 57.6 °F 29.89 in Calm   1.0 mph 75% 0.00 in 0.00 W/m2
21:47 65.7 °F 57.6 °F 29.89 in Calm     75% 0.00 in 0.00 W/m2
21:52 65.7 °F 57.6 °F 29.89 in Calm     75% 0.00 in 0.00 W/m2
21:57 65.5 °F 57.4 °F 29.89 in Calm     75% 0.00 in 0.00 W/m2
22:02 65.2 °F 57.1 °F 29.89 in Calm     75% 0.00 in 0.00 W/m2
22:07 65.0 °F 57.3 °F 29.89 in Calm     76% 0.00 in 0.00 W/m2
22:12 64.8 °F 57.1 °F 29.89 in Calm     76% 0.00 in 0.00 W/m2
22:17 64.7 °F 57.0 °F 29.90 in Calm     76% 0.00 in 0.00 W/m2
22:22 64.5 °F 57.1 °F 29.89 in Calm     77% 0.00 in 0.00 W/m2
22:27 64.3 °F 57.0 °F 29.89 in Calm     77% 0.00 in 0.00 W/m2
22:32 64.1 °F 56.8 °F 29.89 in Calm     77% 0.00 in 0.00 W/m2
22:37 63.9 °F 56.6 °F 29.90 in Calm     77% 0.00 in 0.00 W/m2
22:42 63.8 °F 56.8 °F 29.90 in Calm     78% 0.00 in 0.00 W/m2
22:47 63.8 °F 56.8 °F 29.90 in Calm     78% 0.00 in 0.00 W/m2
22:52 63.6 °F 56.6 °F 29.90 in Calm     78% 0.00 in 0.00 W/m2
22:57 63.6 °F 57.0 °F 29.90 in Calm     79% 0.00 in 0.00 W/m2
23:02 63.5 °F 56.5 °F 29.90 in Calm     78% 0.00 in 0.00 W/m2
23:08 63.4 °F 56.8 °F 29.90 in Calm     79% 0.00 in 0.00 W/m2
23:13 63.1 °F 56.5 °F 29.90 in Calm     79% 0.00 in 0.00 W/m2
23:18 62.9 °F 56.3 °F 29.89 in Calm     79% 0.00 in 0.00 W/m2
23:23 62.6 °F 56.3 °F 29.90 in Calm     80% 0.00 in 0.00 W/m2
23:28 62.4 °F 56.2 °F 29.90 in Calm     80% 0.00 in 0.00 W/m2
23:33 62.2 °F 56.0 °F 29.90 in Calm     80% 0.00 in 0.00 W/m2
23:38 62.2 °F 56.3 °F 29.90 in Calm   1.0 mph 81% 0.00 in 0.00 W/m2
23:43 62.1 °F 56.2 °F 29.90 in WSW 2.0 mph 4.0 mph 81% 0.00 in 0.00 W/m2
23:48 62.0 °F 56.1 °F 29.90 in Calm   3.0 mph 81% 0.00 in 0.00 W/m2
23:53 62.0 °F 56.1 °F 29.90 in WSW 3.0 mph 3.0 mph 81% 0.00 in 0.00 W/m2
23:58 61.8 °F 55.9 °F 29.90 in WSW 5.0 mph 6.0 mph 81% 0.00 in 0.00 W/m2
Foresthill Weather
 WU-history PHP script courtesy of   Juneau County Weather.
powered by Cumulus v1.9.3 (1059)
Ambient Weather VWS v14.00
Top Contact Website Map Copyright © 2007 - 2018 Foresthillweather.com Never base important decisions on this or any weather information obtained from the Internet